Gallup Municipal Airport
KGUP : rendu visible

Aérodrome :











RETROUVEZ-NOUS SUR...

 
LOGIN :

S'inscrire | Disclaimer

   EN    FR    IT 

 









Légende :    VFR   VFR Marginal   IFR   IFR Intensif   IFR Très Intensif
Visi : 
Plafond : 
>= 8 km
>= 3000ft
5 à 8 km
1000 à 3000 ft
1500m à 5 km
500 à 1000 ft
800 à 1500m
200 à 500 ft
< 800m
< 200 ft
Symboles :   Orages  Brouillard  Fortes neiges  Fortes précipitations  Vent > 20 kt






- Altitude de l'aérodrome : 6472 ft
- Code IATA : GUP


KGUP - Gallup Municipal

DERNIER METAR :
  • 231749Z AUTO 23013G18KT 6SM -SN BR BKN010 BKN026 OVC034 02/M01 A3007 RMK AO2 P0000

METARs EXPIRÉS :
  • 231742Z AUTO 22013G18KT 2 1/2SM -SN BR BKN008 BKN026 OVC032 02/00 A3007 RMK AO2 P0000 T00170000
  • 231732Z AUTO 23013KT 3SM -SN BR SCT008 BKN026 OVC032 01/M01 A3007 RMK AO2 P0000 T00111011
  • 231723Z AUTO 23011KT 4SM -SN BR FEW008 SCT013 OVC030 01/M01 A3007 RMK AO2 P0000 T00111006
  • 231709Z AUTO 23014KT 2 1/2SM -SN BR SCT010 BKN028 OVC033 01/M01 A3006 RMK AO2 P0000 T00111011
  • 231702Z AUTO 23012KT 4SM -SN BR FEW007 BKN030 OVC036 02/00 A3006 RMK AO2 P0000 T00170000
  • 231653Z AUTO 23010KT 2SM -SN BR FEW007 BKN028 OVC036 01/M01 A3006 RMK AO2 SNE03B09 SLP167 P0000 T00111006
  • 231636Z AUTO 22011KT 1 1/4SM -SN BR FEW007 BKN021 OVC027 01/M01 A3006 RMK AO2 SNE03B09 P0000 T00061011
  • 231631Z AUTO 23011KT 3/4SM -SN BR FEW007 BKN014 OVC027 01/M01 A3006 RMK AO2 SNE03B09 P0000 T00061006
  • 231608Z AUTO 22011KT 4SM BR SCT008 BKN021 OVC030 01/M01 A3005 RMK AO2 SNE03 P0000 T00061006
  • 231600Z AUTO 22009KT 7SM -SN SCT006 BKN011 OVC028 01/M01 A3005 RMK AO2 P0000 T00061006
  • 231553Z AUTO 23008KT 7SM -SN BKN006 BKN011 OVC020 01/M01 A3005 RMK AO2 SNB50 SLP157 P0000 T00061011

TAF KGUP
Valide du 23 à 18h jusqu'au 24 à 18h UTC


231729Z 2318/2418 26018G28KT P6SM VCSH BKN025
TEMPO 2318/2322 2SM -SHSN BR SCT007 OVC010
FM232200 29013G18KT P6SM VCSH BKN030
FM240400 24009KT P6SM FEW007 BKN012
FM241700 27012KT P6SM FEW040 SCT250



MET'MAP, la Météo Aéronautique d'un coup d'oeil ! - Copyright ORBIFLY Décembre 2007 - Disclaimer

ORBIFLY MET'MAP TEAM :

Programmation & Développement : Alexandra Zaïnal
Sur une idée originale de : Baudouin d'Aumeries
Assistance à la programmation : Marc-Olivier Méhu
Soutien technique & logistique : Manuel Goepfert

Contact : metmap@orbifly.com




SOURCES & CREDITS :

   NOAA       Earth
Advisory